KMGE/MGE METAR and TAF weather

Enter ICAO airport designator
Station Type Date Time Source
KMGE METAR 2021/01/16 02:56 UTC NOAA

KMGE 160256Z 25005KT 10SM CLR 04/M10 A2975 RMK AO2A SLP080 T00381096 52015 $


Station Type Date Time Source
KMGE Decoded METAR 2021/01/16 02:56 UTC NOAA

Marietta / Dobbins Air Force Base, GA, United States (KMGE) 33-55N 084-31W 326M
Jan 15, 2021 - 09:56 PM EST / 2021.01.16 0256 UTC
Wind: from the WSW (250 degrees) at 6 MPH (5 KT):0
Visibility: 10 mile(s):0
Sky conditions: clear
Temperature: 38.8 F (3.8 C)
Dew Point: 14.7 F (-9.6 C)
Relative Humidity: 36%
Pressure (altimeter): 29.75 in. Hg (1007 hPa)
Pressure tendency: 0.04 inches (1.5 hPa) higher than three hours ago
ob: KMGE 160256Z 25005KT 10SM CLR 04/M10 A2975 RMK AO2A SLP080 T00381096 52015
cycle: 3

Station Type Date Time Source
KMGE TAF 2021/01/15 22:06 UTC NOAA

TAF KMGE 152200Z 1522/1704 24012G18KT 9999 FEW040 FEW090 FEW250 QNH2966INS
TEMPO 1522/1524 26015G25KT 510005
BECMG 1523/1524 27009KT 9999 FEW250 QNH2970INS
BECMG 1613/1614 27015G25KT 9999 BKN040 BKN080 BKN250 510004 QNH2980INS
BECMG 1623/1624 28009KT 9999 FEW250 QNH2991INS TX11/1522Z TNM01/1612Z

Example: see airport list